Sunday, October 22, 2017, 5:02 PM EDT
Back to Local

KPOU, Poughkeepsie Dutchess Cty

Location: Wappingers Falls, NY, United States Lat: 41.633
Local Time: 5:02 PM EDT (21:02 GMT) Lon: -73.883
Time Zone: US/Eastern Elev: 167 ft

Show me the last for .
Show Decoded

2017-10-22 15:53 METAR KPOU 221953Z 21005KT 10SM CLR 24/05 A3033 RMK AO2 SLP266 T02390050 =
2017-10-22 14:53 METAR KPOU 221853Z 15008KT 10SM CLR 25/04 A3033 RMK AO2 SLP268 T02500044 =
2017-10-22 13:53 METAR KPOU 221753Z VRB05KT 10SM CLR 24/07 A3034 RMK AO2 SLP271 T02440072 10244
                 20044 58019 =
2017-10-22 12:53 METAR KPOU 221653Z 24004KT 10SM CLR 23/06 A3036 RMK AO2 SLP279 T02280061 =
2017-10-22 11:53 METAR KPOU 221553Z 00000KT 10SM CLR 20/08 A3038 RMK AO2 SLP285 T02000083 =
2017-10-22 10:53 METAR KPOU 221453Z 00000KT 10SM CLR 16/09 A3040 RMK AO2 SLP290 T01610089 58003 =
2017-10-22 09:53 METAR KPOU 221353Z 00000KT 10SM CLR 12/08 A3040 RMK AO2 SLP293 T01220083 =
2017-10-22 08:53 METAR KPOU 221253Z 00000KT 10SM CLR 08/06 A3041 RMK AO2 SLP295 T00780061 =
2017-10-22 07:53 METAR KPOU 221153Z 00000KT 10SM CLR 04/03 A3041 RMK AO2 SLP294 T00440033 10072
                 20039 53016 =
2017-10-22 06:53 METAR KPOU 221053Z 00000KT 10SM CLR 04/03 A3038 RMK AO2 SLP285 T00440033 =
2017-10-22 05:53 METAR KPOU 220953Z 00000KT 10SM CLR 05/04 A3037 RMK AO2 SLP281 T00500039 =
2017-10-22 04:53 METAR KPOU 220853Z 00000KT 10SM CLR 06/04 A3036 RMK AO2 SLP277 T00560044 53004 =
2017-10-22 03:53 METAR KPOU 220753Z 00000KT 10SM CLR 06/04 A3035 RMK AO2 SLP274 T00560044 =
2017-10-22 02:53 METAR KPOU 220653Z 00000KT 10SM CLR 06/05 A3035 RMK AO2 SLP273 T00610050 =
2017-10-22 01:53 METAR KPOU 220553Z 00000KT 10SM CLR 07/06 A3034 RMK AO2 SLP272 T00670056 10128
                 20067 51004 =
2017-10-22 00:53 METAR KPOU 220453Z 00000KT 10SM CLR 07/06 A3034 RMK AO2 SLP272 T00720056
                 402560022 =
2017-10-21 23:53 METAR KPOU 220353Z 00000KT 10SM CLR 08/07 A3034 RMK AO2 SLP271 T00830067 =
2017-10-21 22:53 METAR KPOU 220253Z 00000KT 10SM CLR 09/07 A3033 RMK AO2 SLP268 T00940072 50007 =
2017-10-21 21:53 METAR KPOU 220153Z 00000KT 10SM CLR 10/07 A3033 RMK AO2 SLP268 T01000072 =
2017-10-21 20:53 METAR KPOU 220053Z 00000KT 10SM CLR 11/08 A3032 RMK AO2 SLP264 T01110078 =
2017-10-21 19:53 METAR KPOU 212353Z 00000KT 10SM CLR 12/09 A3031 RMK AO2 SLP262 T01220089 10256
                 20122 51013 =
2017-10-21 18:53 METAR KPOU 212253Z 00000KT 10SM CLR 15/09 A3030 RMK AO2 SLP258 T01500094 =
2017-10-21 17:53 METAR KPOU 212153Z 00000KT 10SM CLR 19/10 A3029 RMK AO2 SLP252 T01890100 =

Support USWX by starting your Amazon purchase here.